sensor_id;sensor_type;location;lat;lon;timestamp;pressure;altitude;pressure_sealevel;temperature;humidity
4617;BME280;2321;42.704;23.384;2023-06-14T00:01:10;95136.25;;;18.87;100.00
4617;BME280;2321;42.704;23.384;2023-06-14T00:03:38;95135.41;;;18.87;100.00
4617;BME280;2321;42.704;23.384;2023-06-14T00:06:06;95137.28;;;18.86;100.00
4617;BME280;2321;42.704;23.384;2023-06-14T00:08:34;95137.38;;;18.91;100.00
4617;BME280;2321;42.704;23.384;2023-06-14T00:11:01;95131.41;;;18.89;100.00
4617;BME280;2321;42.704;23.384;2023-06-14T00:13:28;95134.09;;;18.89;100.00
4617;BME280;2321;42.704;23.384;2023-06-14T00:15:55;95131.66;;;18.88;100.00
4617;BME280;2321;42.704;23.384;2023-06-14T00:18:22;95129.78;;;18.88;100.00
4617;BME280;2321;42.704;23.384;2023-06-14T00:20:50;95127.91;;;18.89;100.00
4617;BME280;2321;42.704;23.384;2023-06-14T00:23:17;95124.13;;;18.90;100.00
4617;BME280;2321;42.704;23.384;2023-06-14T00:25:46;95123.63;;;18.93;100.00
4617;BME280;2321;42.704;23.384;2023-06-14T00:28:13;95127.69;;;18.95;100.00
4617;BME280;2321;42.704;23.384;2023-06-14T00:30:40;95118.31;;;18.98;100.00
4617;BME280;2321;42.704;23.384;2023-06-14T00:33:09;95116.41;;;18.99;100.00
4617;BME280;2321;42.704;23.384;2023-06-14T00:35:38;95120.75;;;19.00;100.00
4617;BME280;2321;42.704;23.384;2023-06-14T00:38:05;95122.94;;;19.03;100.00
4617;BME280;2321;42.704;23.384;2023-06-14T00:40:32;95120.78;;;19.05;100.00
4617;BME280;2321;42.704;23.384;2023-06-14T00:43:01;95121.06;;;19.03;100.00
4617;BME280;2321;42.704;23.384;2023-06-14T00:45:28;95125.94;;;19.07;100.00
4617;BME280;2321;42.704;23.384;2023-06-14T00:47:57;95120.28;;;19.08;100.00
4617;BME280;2321;42.704;23.384;2023-06-14T00:50:24;95107.88;;;19.07;100.00
4617;BME280;2321;42.704;23.384;2023-06-14T00:52:51;95111.63;;;19.06;100.00
4617;BME280;2321;42.704;23.384;2023-06-14T00:55:18;95117.03;;;19.06;100.00
4617;BME280;2321;42.704;23.384;2023-06-14T00:57:45;95114.88;;;19.08;100.00
4617;BME280;2321;42.704;23.384;2023-06-14T01:00:15;95120.84;;;19.10;100.00
4617;BME280;2321;42.704;23.384;2023-06-14T01:02:41;95113.31;;;19.12;100.00
4617;BME280;2321;42.704;23.384;2023-06-14T01:05:09;95109.84;;;19.17;100.00
4617;BME280;2321;42.704;23.384;2023-06-14T01:07:46;95112.31;;;19.19;100.00
4617;BME280;2321;42.704;23.384;2023-06-14T01:10:27;95120.41;;;19.19;100.00
4617;BME280;2321;42.704;23.384;2023-06-14T01:13:05;95118.28;;;19.21;100.00
4617;BME280;2321;42.704;23.384;2023-06-14T01:15:35;95109.38;;;19.20;100.00
4617;BME280;2321;42.704;23.384;2023-06-14T01:18:04;95112.06;;;19.20;100.00
4617;BME280;2321;42.704;23.384;2023-06-14T01:20:33;95115.00;;;19.19;100.00
4617;BME280;2321;42.704;23.384;2023-06-14T01:23:03;95107.72;;;19.19;100.00
4617;BME280;2321;42.704;23.384;2023-06-14T01:25:30;95116.13;;;19.23;100.00
4617;BME280;2321;42.704;23.384;2023-06-14T01:28:00;95111.56;;;19.23;100.00
4617;BME280;2321;42.704;23.384;2023-06-14T01:30:28;95116.13;;;19.23;100.00
4617;BME280;2321;42.704;23.384;2023-06-14T01:32:56;95114.84;;;19.25;100.00
4617;BME280;2321;42.704;23.384;2023-06-14T01:35:24;95117.78;;;19.24;100.00
4617;BME280;2321;42.704;23.384;2023-06-14T01:37:51;95116.13;;;19.23;100.00
4617;BME280;2321;42.704;23.384;2023-06-14T01:40:21;95111.00;;;19.21;100.00
4617;BME280;2321;42.704;23.384;2023-06-14T01:42:49;95112.88;;;19.21;100.00
4617;BME280;2321;42.704;23.384;2023-06-14T01:45:17;95110.41;;;19.19;100.00
4617;BME280;2321;42.704;23.384;2023-06-14T01:47:45;95108.50;;;19.20;100.00
4617;BME280;2321;42.704;23.384;2023-06-14T01:50:12;95108.31;;;19.21;100.00
4617;BME280;2321;42.704;23.384;2023-06-14T01:52:39;95108.31;;;19.21;100.00
4617;BME280;2321;42.704;23.384;2023-06-14T01:55:07;95104.19;;;19.19;100.00
4617;BME280;2321;42.704;23.384;2023-06-14T01:57:36;95107.72;;;19.19;100.00
4617;BME280;2321;42.704;23.384;2023-06-14T02:00:03;95107.16;;;19.17;100.00
4617;BME280;2321;42.704;23.384;2023-06-14T02:02:33;95113.13;;;19.19;100.00
4617;BME280;2321;42.704;23.384;2023-06-14T02:05:01;95113.63;;;19.16;100.00
4617;BME280;2321;42.704;23.384;2023-06-14T02:07:27;95119.25;;;19.14;100.00
4617;BME280;2321;42.704;23.384;2023-06-14T02:09:54;95119.84;;;19.16;100.00
4617;BME280;2321;42.704;23.384;2023-06-14T02:12:21;95132.19;;;19.12;100.00
4617;BME280;2321;42.704;23.384;2023-06-14T02:14:49;95135.41;;;19.09;100.00
4617;BME280;2321;42.704;23.384;2023-06-14T02:17:16;95139.66;;;19.05;100.00
4617;BME280;2321;42.704;23.384;2023-06-14T02:19:43;95139.66;;;19.05;100.00
4617;BME280;2321;42.704;23.384;2023-06-14T02:22:10;95142.88;;;19.02;100.00
4617;BME280;2321;42.704;23.384;2023-06-14T02:24:37;95134.72;;;18.97;100.00
4617;BME280;2321;42.704;23.384;2023-06-14T02:27:04;95138.47;;;18.95;100.00
4617;BME280;2321;42.704;23.384;2023-06-14T02:29:32;95138.94;;;18.87;100.00
4617;BME280;2321;42.704;23.384;2023-06-14T02:32:00;95139.50;;;18.89;100.00
4617;BME280;2321;42.704;23.384;2023-06-14T02:34:27;95141.91;;;18.86;100.00
4617;BME280;2321;42.704;23.384;2023-06-14T02:36:54;95143.78;;;18.85;100.00
4617;BME280;2321;42.704;23.384;2023-06-14T02:39:20;95140.75;;;18.81;100.00
4617;BME280;2321;42.704;23.384;2023-06-14T02:41:48;95140.22;;;18.79;100.00
4617;BME280;2321;42.704;23.384;2023-06-14T02:44:17;95140.72;;;18.76;100.00
4617;BME280;2321;42.704;23.384;2023-06-14T02:46:44;95143.63;;;18.75;100.00
4617;BME280;2321;42.704;23.384;2023-06-14T02:49:13;95135.56;;;18.75;100.00
4617;BME280;2321;42.704;23.384;2023-06-14T02:51:40;95135.00;;;18.72;100.00
4617;BME280;2321;42.704;23.384;2023-06-14T02:54:07;95136.88;;;18.72;100.00
4617;BME280;2321;42.704;23.384;2023-06-14T02:56:34;95140.88;;;18.69;100.00
4617;BME280;2321;42.704;23.384;2023-06-14T02:59:01;95139.25;;;18.68;100.00
4617;BME280;2321;42.704;23.384;2023-06-14T03:01:28;95142.22;;;18.67;100.00
4617;BME280;2321;42.704;23.384;2023-06-14T03:04:00;95144.91;;;18.67;100.00
4617;BME280;2321;42.704;23.384;2023-06-14T03:06:30;95143.53;;;18.64;100.00
4617;BME280;2321;42.704;23.384;2023-06-14T03:08:57;95151.13;;;18.67;100.00
4617;BME280;2321;42.704;23.384;2023-06-14T03:11:26;95152.16;;;18.66;100.00
4617;BME280;2321;42.704;23.384;2023-06-14T03:13:54;95148.91;;;18.64;100.00
4617;BME280;2321;42.704;23.384;2023-06-14T03:16:22;95153.00;;;18.67;100.00
4617;BME280;2321;42.704;23.384;2023-06-14T03:18:50;95153.31;;;18.70;100.00
4617;BME280;2321;42.704;23.384;2023-06-14T03:21:17;95158.44;;;18.72;100.00
4617;BME280;2321;42.704;23.384;2023-06-14T03:23:46;95156.56;;;18.72;100.00
4617;BME280;2321;42.704;23.384;2023-06-14T03:26:13;95153.88;;;18.72;100.00
4617;BME280;2321;42.704;23.384;2023-06-14T03:28:43;95163.59;;;18.73;100.00
4617;BME280;2321;42.704;23.384;2023-06-14T03:31:10;95163.34;;;18.75;100.00
4617;BME280;2321;42.704;23.384;2023-06-14T03:33:37;95162.50;;;18.75;100.00
4617;BME280;2321;42.704;23.384;2023-06-14T03:36:04;95159.25;;;18.72;100.00
4617;BME280;2321;42.704;23.384;2023-06-14T03:38:31;95164.66;;;18.72;100.00
4617;BME280;2321;42.704;23.384;2023-06-14T03:41:00;95160.91;;;18.73;100.00
4617;BME280;2321;42.704;23.384;2023-06-14T03:43:27;95167.34;;;18.72;100.00
4617;BME280;2321;42.704;23.384;2023-06-14T03:45:55;95161.91;;;18.67;100.00
4617;BME280;2321;42.704;23.384;2023-06-14T03:48:22;95169.41;;;18.65;100.00
4617;BME280;2321;42.704;23.384;2023-06-14T03:50:49;95165.09;;;18.64;100.00
4617;BME280;2321;42.704;23.384;2023-06-14T03:53:16;95165.28;;;18.57;100.00
4617;BME280;2321;42.704;23.384;2023-06-14T03:55:42;95164.41;;;18.51;100.00
4617;BME280;2321;42.704;23.384;2023-06-14T03:58:11;95162.03;;;18.55;100.00
4617;BME280;2321;42.704;23.384;2023-06-14T04:00:38;95170.59;;;18.52;100.00
4617;BME280;2321;42.704;23.384;2023-06-14T04:03:05;95175.22;;;18.57;100.00
4617;BME280;2321;42.704;23.384;2023-06-14T04:05:32;95173.09;;;18.59;100.00
4617;BME280;2321;42.704;23.384;2023-06-14T04:07:59;95169.84;;;18.57;100.00
4617;BME280;2321;42.704;23.384;2023-06-14T04:10:26;95174.41;;;18.56;100.00
4617;BME280;2321;42.704;23.384;2023-06-14T04:12:53;95178.50;;;18.59;100.00
4617;BME280;2321;42.704;23.384;2023-06-14T04:15:21;95172.59;;;18.62;100.00
4617;BME280;2321;42.704;23.384;2023-06-14T04:17:50;95170.22;;;18.66;100.00
4617;BME280;2321;42.704;23.384;2023-06-14T04:20:17;95172.91;;;18.66;100.00
4617;BME280;2321;42.704;23.384;2023-06-14T04:22:43;95174.88;;;18.70;100.00
4617;BME280;2321;42.704;23.384;2023-06-14T04:25:10;95174.38;;;18.73;100.00
4617;BME280;2321;42.704;23.384;2023-06-14T04:27:37;95180.34;;;18.76;100.00
4617;BME280;2321;42.704;23.384;2023-06-14T04:30:06;95174.75;;;18.82;100.00
4617;BME280;2321;42.704;23.384;2023-06-14T04:32:34;95181.28;;;18.87;100.00
4617;BME280;2321;42.704;23.384;2023-06-14T04:35:05;95171.84;;;18.89;100.00
4617;BME280;2321;42.704;23.384;2023-06-14T04:37:32;95179.75;;;18.96;100.00
4617;BME280;2321;42.704;23.384;2023-06-14T04:39:59;95183.03;;;18.98;100.00
4617;BME280;2321;42.704;23.384;2023-06-14T04:42:26;95177.94;;;19.02;100.00
4617;BME280;2321;42.704;23.384;2023-06-14T04:44:56;95171.22;;;19.04;100.00
4617;BME280;2321;42.704;23.384;2023-06-14T04:47:24;95176.94;;;19.08;100.00
4617;BME280;2321;42.704;23.384;2023-06-14T04:49:57;95184.78;;;19.10;100.00
4617;BME280;2321;42.704;23.384;2023-06-14T04:52:26;95178.56;;;19.09;100.00
4617;BME280;2321;42.704;23.384;2023-06-14T04:54:55;95193.44;;;19.12;100.00
4617;BME280;2321;42.704;23.384;2023-06-14T04:57:22;95190.00;;;19.16;100.00
4617;BME280;2321;42.704;23.384;2023-06-14T04:59:51;95196.53;;;19.21;100.00
4617;BME280;2321;42.704;23.384;2023-06-14T05:02:20;95198.78;;;19.29;100.00
4617;BME280;2321;42.704;23.384;2023-06-14T05:04:48;95197.78;;;19.35;100.00
4617;BME280;2321;42.704;23.384;2023-06-14T05:07:16;95194.00;;;19.36;100.00
4617;BME280;2321;42.704;23.384;2023-06-14T05:09:44;95196.19;;;19.40;100.00
4617;BME280;2321;42.704;23.384;2023-06-14T05:12:11;95199.78;;;19.45;100.00
4617;BME280;2321;42.704;23.384;2023-06-14T05:14:38;95203.84;;;19.48;100.00
4617;BME280;2321;42.704;23.384;2023-06-14T05:17:06;95204.41;;;19.50;100.00
4617;BME280;2321;42.704;23.384;2023-06-14T05:19:33;95196.59;;;19.54;100.00
4617;BME280;2321;42.704;23.384;2023-06-14T05:21:59;95209.34;;;19.58;100.00
4617;BME280;2321;42.704;23.384;2023-06-14T05:24:29;95203.13;;;19.58;100.00
4617;BME280;2321;42.704;23.384;2023-06-14T05:26:57;95212.59;;;19.60;100.00
4617;BME280;2321;42.704;23.384;2023-06-14T05:29:24;95215.06;;;19.62;100.00
4617;BME280;2321;42.704;23.384;2023-06-14T05:31:51;95220.75;;;19.66;100.00
4617;BME280;2321;42.704;23.384;2023-06-14T05:34:18;95224.03;;;19.68;100.00
4617;BME280;2321;42.704;23.384;2023-06-14T05:36:45;95230.81;;;19.70;100.00
4617;BME280;2321;42.704;23.384;2023-06-14T05:39:12;95231.34;;;19.73;100.00
4617;BME280;2321;42.704;23.384;2023-06-14T05:41:41;95226.78;;;19.73;100.00
4617;BME280;2321;42.704;23.384;2023-06-14T05:44:08;95220.81;;;19.71;100.00
4617;BME280;2321;42.704;23.384;2023-06-14T05:46:35;95230.53;;;19.72;100.00
4617;BME280;2321;42.704;23.384;2023-06-14T05:49:02;95229.47;;;19.73;100.00
4617;BME280;2321;42.704;23.384;2023-06-14T05:51:29;95238.94;;;19.76;100.00
4617;BME280;2321;42.704;23.384;2023-06-14T05:53:56;95229.00;;;19.81;100.00
4617;BME280;2321;42.704;23.384;2023-06-14T05:56:23;95229.31;;;19.85;100.00
4617;BME280;2321;42.704;23.384;2023-06-14T05:58:52;95234.72;;;19.85;100.00
4617;BME280;2321;42.704;23.384;2023-06-14T06:01:19;95233.03;;;19.79;100.00
4617;BME280;2321;42.704;23.384;2023-06-14T06:03:46;95237.94;;;19.82;100.00
4617;BME280;2321;42.704;23.384;2023-06-14T06:06:13;95240.94;;;19.86;100.00
4617;BME280;2321;42.704;23.384;2023-06-14T06:08:40;95235.56;;;19.91;100.00
4617;BME280;2321;42.704;23.384;2023-06-14T06:11:08;95239.97;;;19.97;100.00
4617;BME280;2321;42.704;23.384;2023-06-14T06:13:35;95243.78;;;20.01;100.00
4617;BME280;2321;42.704;23.384;2023-06-14T06:16:03;95243.81;;;20.07;100.00
4617;BME280;2321;42.704;23.384;2023-06-14T06:18:30;95240.38;;;20.11;100.00
4617;BME280;2321;42.704;23.384;2023-06-14T06:20:57;95236.03;;;20.10;100.00
4617;BME280;2321;42.704;23.384;2023-06-14T06:23:24;95242.19;;;20.06;100.00
4617;BME280;2321;42.704;23.384;2023-06-14T06:25:51;95244.94;;;20.11;100.00
4617;BME280;2321;42.704;23.384;2023-06-14T06:28:18;95249.03;;;20.13;100.00
4617;BME280;2321;42.704;23.384;2023-06-14T06:30:45;95242.88;;;20.18;100.00
4617;BME280;2321;42.704;23.384;2023-06-14T06:33:14;95252.88;;;20.18;100.00
4617;BME280;2321;42.704;23.384;2023-06-14T06:35:41;95252.63;;;20.19;100.00
4617;BME280;2321;42.704;23.384;2023-06-14T06:38:08;95246.31;;;20.13;100.00
4617;BME280;2321;42.704;23.384;2023-06-14T06:40:35;95260.75;;;20.24;100.00
4617;BME280;2321;42.704;23.384;2023-06-14T06:43:03;95260.81;;;20.30;100.00
4617;BME280;2321;42.704;23.384;2023-06-14T06:45:29;95257.22;;;20.24;100.00
4617;BME280;2321;42.704;23.384;2023-06-14T06:47:56;95258.63;;;20.27;100.00
4617;BME280;2321;42.704;23.384;2023-06-14T06:50:24;95253.25;;;20.32;100.00
4617;BME280;2321;42.704;23.384;2023-06-14T06:52:52;95263.28;;;20.36;100.00
4617;BME280;2321;42.704;23.384;2023-06-14T06:55:19;95250.03;;;20.35;100.00
4617;BME280;2321;42.704;23.384;2023-06-14T06:57:46;95253.56;;;20.35;100.00
4617;BME280;2321;42.704;23.384;2023-06-14T07:00:16;95256.28;;;20.41;100.00
4617;BME280;2321;42.704;23.384;2023-06-14T07:02:43;95260.88;;;20.40;100.00
4617;BME280;2321;42.704;23.384;2023-06-14T07:05:10;95259.53;;;20.43;100.00
4617;BME280;2321;42.704;23.384;2023-06-14T07:07:38;95258.75;;;20.42;100.00
4617;BME280;2321;42.704;23.384;2023-06-14T07:10:06;95263.63;;;20.45;100.00
4617;BME280;2321;42.704;23.384;2023-06-14T07:12:33;95257.69;;;20.49;100.00
4617;BME280;2321;42.704;23.384;2023-06-14T07:15:05;95257.44;;;20.50;100.00
4617;BME280;2321;42.704;23.384;2023-06-14T07:17:33;95254.75;;;20.50;100.00
4617;BME280;2321;42.704;23.384;2023-06-14T07:20:02;95257.44;;;20.50;100.00
4617;BME280;2321;42.704;23.384;2023-06-14T07:22:33;95253.44;;;20.58;100.00
4617;BME280;2321;42.704;23.384;2023-06-14T07:25:02;95253.50;;;20.68;100.00
4617;BME280;2321;42.704;23.384;2023-06-14T07:27:29;95250.53;;;20.70;100.00
4617;BME280;2321;42.704;23.384;2023-06-14T07:29:56;95257.06;;;20.79;100.00
4617;BME280;2321;42.704;23.384;2023-06-14T07:32:23;95249.28;;;20.88;100.00
4617;BME280;2321;42.704;23.384;2023-06-14T07:34:50;95245.28;;;20.96;100.00
4617;BME280;2321;42.704;23.384;2023-06-14T07:37:16;95243.75;;;21.11;100.00
4617;BME280;2321;42.704;23.384;2023-06-14T07:39:43;95244.63;;;21.22;100.00
4617;BME280;2321;42.704;23.384;2023-06-14T07:42:13;95254.06;;;21.19;100.00
4617;BME280;2321;42.704;23.384;2023-06-14T07:44:40;95251.09;;;21.16;100.00
4617;BME280;2321;42.704;23.384;2023-06-14T07:47:07;95250.56;;;21.19;100.00
4617;BME280;2321;42.704;23.384;2023-06-14T07:49:34;95246.50;;;21.21;100.00
4617;BME280;2321;42.704;23.384;2023-06-14T07:52:01;95250.88;;;21.28;100.00
4617;BME280;2321;42.704;23.384;2023-06-14T07:54:30;95258.19;;;21.32;100.00
4617;BME280;2321;42.704;23.384;2023-06-14T07:56:59;95260.38;;;21.41;100.00
4617;BME280;2321;42.704;23.384;2023-06-14T07:59:27;95271.53;;;21.55;100.00
4617;BME280;2321;42.704;23.384;2023-06-14T08:01:54;95268.84;;;21.60;100.00
4617;BME280;2321;42.704;23.384;2023-06-14T08:04:21;95269.38;;;21.62;100.00
4617;BME280;2321;42.704;23.384;2023-06-14T08:06:49;95272.38;;;21.71;100.00
4617;BME280;2321;42.704;23.384;2023-06-14T08:09:19;95269.78;;;21.92;100.00
4617;BME280;2321;42.704;23.384;2023-06-14T08:11:46;95280.34;;;22.09;100.00
4617;BME280;2321;42.704;23.384;2023-06-14T08:14:13;95286.06;;;22.24;100.00
4617;BME280;2321;42.704;23.384;2023-06-14T08:16:41;95281.75;;;22.38;100.00
4617;BME280;2321;42.704;23.384;2023-06-14T08:19:08;95288.78;;;22.39;100.00
4617;BME280;2321;42.704;23.384;2023-06-14T08:21:35;95289.84;;;22.49;100.00
4617;BME280;2321;42.704;23.384;2023-06-14T08:24:02;95290.94;;;22.58;100.00
4617;BME280;2321;42.704;23.384;2023-06-14T08:26:29;95286.88;;;22.66;100.00
4617;BME280;2321;42.704;23.384;2023-06-14T08:28:57;95291.22;;;22.72;100.00
4617;BME280;2321;42.704;23.384;2023-06-14T08:31:24;95284.44;;;22.80;100.00
4617;BME280;2321;42.704;23.384;2023-06-14T08:33:52;95283.59;;;22.95;100.00
4617;BME280;2321;42.704;23.384;2023-06-14T08:36:20;95286.03;;;22.92;100.00
4617;BME280;2321;42.704;23.384;2023-06-14T08:38:48;95289.56;;;23.03;100.00
4617;BME280;2321;42.704;23.384;2023-06-14T08:41:20;95287.34;;;23.15;100.00
4617;BME280;2321;42.704;23.384;2023-06-14T08:43:47;95283.50;;;23.32;100.00
4617;BME280;2321;42.704;23.384;2023-06-14T08:46:17;95278.03;;;23.37;100.00
4617;BME280;2321;42.704;23.384;2023-06-14T08:48:46;95277.47;;;23.40;100.00
4617;BME280;2321;42.704;23.384;2023-06-14T08:51:18;95274.16;;;23.59;100.00
4617;BME280;2321;42.704;23.384;2023-06-14T08:53:51;95267.88;;;23.69;100.00
4617;BME280;2321;42.704;23.384;2023-06-14T08:56:19;95270.56;;;23.75;94.77
4617;BME280;2321;42.704;23.384;2023-06-14T08:58:48;95271.34;;;23.80;100.00
4617;BME280;2321;42.704;23.384;2023-06-14T09:01:16;95267.75;;;23.90;97.12
4617;BME280;2321;42.704;23.384;2023-06-14T09:03:43;95271.50;;;24.00;92.91
4617;BME280;2321;42.704;23.384;2023-06-14T09:06:11;95266.59;;;24.02;91.23
4617;BME280;2321;42.704;23.384;2023-06-14T09:08:42;95265.50;;;24.03;90.33
4617;BME280;2321;42.704;23.384;2023-06-14T09:11:11;95270.41;;;24.01;89.01
4617;BME280;2321;42.704;23.384;2023-06-14T09:13:40;95268.22;;;24.03;92.86
4617;BME280;2321;42.704;23.384;2023-06-14T09:16:07;95272.56;;;24.04;89.25
4617;BME280;2321;42.704;23.384;2023-06-14T09:18:35;95259.75;;;24.10;91.02
4617;BME280;2321;42.704;23.384;2023-06-14T09:21:02;95257.47;;;24.22;92.46
4617;BME280;2321;42.704;23.384;2023-06-14T09:23:29;95259.81;;;24.40;89.34
4617;BME280;2321;42.704;23.384;2023-06-14T09:26:01;95250.28;;;24.42;87.91
4617;BME280;2321;42.704;23.384;2023-06-14T09:28:32;95259.78;;;24.45;85.79
4617;BME280;2321;42.704;23.384;2023-06-14T09:31:00;95268.47;;;24.47;87.53
4617;BME280;2321;42.704;23.384;2023-06-14T09:33:27;95262.22;;;24.46;84.65
4617;BME280;2321;42.704;23.384;2023-06-14T09:35:54;95261.97;;;24.43;83.45
4617;BME280;2321;42.704;23.384;2023-06-14T09:38:21;95263.94;;;24.37;87.75
4617;BME280;2321;42.704;23.384;2023-06-14T09:40:49;95262.59;;;24.34;90.33
4617;BME280;2321;42.704;23.384;2023-06-14T09:43:18;95257.41;;;24.33;89.95
4617;BME280;2321;42.704;23.384;2023-06-14T09:45:47;95256.59;;;24.32;88.18
4617;BME280;2321;42.704;23.384;2023-06-14T09:48:16;95247.84;;;24.41;91.47
4617;BME280;2321;42.704;23.384;2023-06-14T09:50:45;95239.63;;;24.46;89.61
4617;BME280;2321;42.704;23.384;2023-06-14T09:53:14;95241.97;;;24.58;88.78
4617;BME280;2321;42.704;23.384;2023-06-14T09:55:42;95250.06;;;24.63;84.48
4617;BME280;2321;42.704;23.384;2023-06-14T09:58:10;95240.25;;;24.67;81.64
4617;BME280;2321;42.704;23.384;2023-06-14T10:00:40;95240.75;;;24.75;78.79
4617;BME280;2321;42.704;23.384;2023-06-14T10:03:13;95238.88;;;24.70;78.46
4617;BME280;2321;42.704;23.384;2023-06-14T10:05:43;95234.81;;;24.67;81.40
4617;BME280;2321;42.704;23.384;2023-06-14T10:08:13;95229.03;;;24.74;89.25
4617;BME280;2321;42.704;23.384;2023-06-14T10:10:42;95230.63;;;24.75;82.52
4617;BME280;2321;42.704;23.384;2023-06-14T10:13:10;95237.97;;;24.80;79.76
4617;BME280;2321;42.704;23.384;2023-06-14T10:15:45;95225.38;;;24.84;79.95
4617;BME280;2321;42.704;23.384;2023-06-14T10:18:20;95222.63;;;24.89;78.92
4617;BME280;2321;42.704;23.384;2023-06-14T10:20:55;95222.88;;;24.88;79.12
4617;BME280;2321;42.704;23.384;2023-06-14T10:23:28;95207.53;;;24.97;76.94
4617;BME280;2321;42.704;23.384;2023-06-14T10:25:57;95212.25;;;24.91;77.41
4617;BME280;2321;42.704;23.384;2023-06-14T10:28:25;95209.34;;;24.83;75.92
4617;BME280;2321;42.704;23.384;2023-06-14T10:31:10;95214.66;;;24.68;79.32
4617;BME280;2321;42.704;23.384;2023-06-14T10:33:40;95212.16;;;24.72;79.43
4617;BME280;2321;42.704;23.384;2023-06-14T10:36:32;95206.97;;;24.76;78.76
4617;BME280;2321;42.704;23.384;2023-06-14T10:39:07;95205.75;;;24.87;83.61
4617;BME280;2321;42.704;23.384;2023-06-14T10:41:37;95207.38;;;24.88;76.39
4617;BME280;2321;42.704;23.384;2023-06-14T10:49:52;95206.22;;;24.95;78.50
4617;BME280;2321;42.704;23.384;2023-06-14T10:52:23;95195.25;;;25.05;75.46
4617;BME280;2321;42.704;23.384;2023-06-14T10:55:05;95187.22;;;25.14;74.88
4617;BME280;2321;42.704;23.384;2023-06-14T10:57:36;95189.22;;;25.28;77.63
4617;BME280;2321;42.704;23.384;2023-06-14T11:00:05;95182.69;;;25.29;74.56
4617;BME280;2321;42.704;23.384;2023-06-14T11:05:48;95183.19;;;25.31;76.64
4617;BME280;2321;42.704;23.384;2023-06-14T11:08:27;95186.16;;;25.34;78.98
4617;BME280;2321;42.704;23.384;2023-06-14T11:11:00;95176.22;;;25.44;79.70
4617;BME280;2321;42.704;23.384;2023-06-14T11:13:29;95179.09;;;25.53;71.05
4617;BME280;2321;42.704;23.384;2023-06-14T11:15:56;95172.78;;;25.57;69.82
4617;BME280;2321;42.704;23.384;2023-06-14T11:18:25;95176.59;;;25.56;71.64
4617;BME280;2321;42.704;23.384;2023-06-14T11:20:53;95175.06;;;25.70;70.26
4617;BME280;2321;42.704;23.384;2023-06-14T11:23:21;95169.75;;;25.78;76.19
4617;BME280;2321;42.704;23.384;2023-06-14T11:25:50;95171.81;;;25.87;74.44
4617;BME280;2321;42.704;23.384;2023-06-14T11:28:17;95156.09;;;25.98;82.19
4617;BME280;2321;42.704;23.384;2023-06-14T11:30:47;95158.78;;;26.17;81.67
4617;BME280;2321;42.704;23.384;2023-06-14T11:33:17;95150.00;;;26.35;72.29
4617;BME280;2321;42.704;23.384;2023-06-14T11:35:46;95155.53;;;26.49;68.54
4617;BME280;2321;42.704;23.384;2023-06-14T11:38:13;95159.78;;;26.55;67.73
4617;BME280;2321;42.704;23.384;2023-06-14T11:40:40;95157.66;;;26.52;66.99
4617;BME280;2321;42.704;23.384;2023-06-14T11:43:07;95160.75;;;26.45;65.58
4617;BME280;2321;42.704;23.384;2023-06-14T11:45:34;95161.81;;;26.49;70.12
4617;BME280;2321;42.704;23.384;2023-06-14T11:48:01;95150.28;;;26.52;67.05
4617;BME280;2321;42.704;23.384;2023-06-14T11:50:28;95148.66;;;26.65;63.21
4617;BME280;2321;42.704;23.384;2023-06-14T11:52:57;95138.16;;;26.73;64.13
4617;BME280;2321;42.704;23.384;2023-06-14T11:55:25;95135.53;;;26.82;66.30
4617;BME280;2321;42.704;23.384;2023-06-14T11:57:54;95133.91;;;26.95;66.40
4617;BME280;2321;42.704;23.384;2023-06-14T12:00:24;95136.31;;;27.11;65.51
4617;BME280;2321;42.704;23.384;2023-06-14T12:02:53;95125.06;;;27.26;70.97
4617;BME280;2321;42.704;23.384;2023-06-14T12:05:21;95120.19;;;27.37;63.47
4617;BME280;2321;42.704;23.384;2023-06-14T12:07:48;95116.03;;;27.40;63.44
4617;BME280;2321;42.704;23.384;2023-06-14T12:10:17;95109.34;;;27.46;63.47
4617;BME280;2321;42.704;23.384;2023-06-14T12:12:44;95107.59;;;27.50;57.98
4617;BME280;2321;42.704;23.384;2023-06-14T12:15:11;95108.59;;;27.55;57.74
4617;BME280;2321;42.704;23.384;2023-06-14T12:17:39;95114.13;;;27.63;61.55
4617;BME280;2321;42.704;23.384;2023-06-14T12:20:08;95103.50;;;27.62;55.16
4617;BME280;2321;42.704;23.384;2023-06-14T12:22:39;95106.66;;;27.55;56.89
4617;BME280;2321;42.704;23.384;2023-06-14T12:25:26;95100.25;;;27.37;57.63
4617;BME280;2321;42.704;23.384;2023-06-14T12:27:53;95110.69;;;27.35;61.42
4617;BME280;2321;42.704;23.384;2023-06-14T12:30:20;95109.88;;;27.34;62.31
4617;BME280;2321;42.704;23.384;2023-06-14T12:32:47;95100.38;;;27.32;60.45
4617;BME280;2321;42.704;23.384;2023-06-14T12:35:16;95093.59;;;27.29;60.11
4617;BME280;2321;42.704;23.384;2023-06-14T12:37:44;95093.22;;;27.22;60.63
4617;BME280;2321;42.704;23.384;2023-06-14T12:40:12;95090.59;;;27.16;61.77
4617;BME280;2321;42.704;23.384;2023-06-14T12:42:41;95084.09;;;27.12;58.04
4617;BME280;2321;42.704;23.384;2023-06-14T12:45:09;95085.50;;;27.09;58.56
4617;BME280;2321;42.704;23.384;2023-06-14T12:47:36;95088.53;;;27.08;58.52
4617;BME280;2321;42.704;23.384;2023-06-14T12:50:04;95086.75;;;27.03;56.01
4617;BME280;2321;42.704;23.384;2023-06-14T12:52:31;95078.66;;;26.98;56.96
4617;BME280;2321;42.704;23.384;2023-06-14T12:55:01;95075.41;;;26.96;57.40
4617;BME280;2321;42.704;23.384;2023-06-14T12:57:28;95073.81;;;26.95;57.40
4617;BME280;2321;42.704;23.384;2023-06-14T12:59:57;95068.44;;;26.90;56.63
4617;BME280;2321;42.704;23.384;2023-06-14T13:02:24;95063.78;;;26.90;59.22
4617;BME280;2321;42.704;23.384;2023-06-14T13:04:51;95067.34;;;26.91;58.87
4617;BME280;2321;42.704;23.384;2023-06-14T13:07:18;95071.28;;;26.84;60.89
4617;BME280;2321;42.704;23.384;2023-06-14T13:09:45;95073.53;;;26.82;59.53
4617;BME280;2321;42.704;23.384;2023-06-14T13:12:12;95064.53;;;26.82;59.09
4617;BME280;2321;42.704;23.384;2023-06-14T13:14:39;95064.72;;;26.85;59.23
4617;BME280;2321;42.704;23.384;2023-06-14T13:17:09;95067.13;;;26.87;58.27